createdAt,value
2018-05-06T00:00:53.606Z,4.27
2018-05-06T00:03:19.786Z,3.73
2018-05-06T00:05:46.152Z,4.03
2018-05-06T00:08:13.047Z,3.80
2018-05-06T00:10:39.225Z,3.07
2018-05-06T00:13:06.153Z,3.97
2018-05-06T00:15:32.335Z,3.70
2018-05-06T00:17:58.526Z,3.50
2018-05-06T00:20:25.634Z,3.50
2018-05-06T00:22:51.830Z,4.40
2018-05-06T00:25:18.757Z,3.70
2018-05-06T00:27:44.971Z,3.83
2018-05-06T00:30:11.167Z,4.20
2018-05-06T00:32:37.368Z,4.03
2018-05-06T00:35:04.302Z,4.47
2018-05-06T00:37:30.481Z,4.10
2018-05-06T00:39:56.656Z,4.20
2018-05-06T00:42:22.872Z,3.83
2018-05-06T00:44:49.080Z,3.83
2018-05-06T00:47:15.252Z,4.00
2018-05-06T00:49:41.435Z,4.30
2018-05-06T00:52:07.620Z,3.73
2018-05-06T00:54:43.100Z,3.40
2018-05-06T00:57:10.087Z,3.93
2018-05-06T00:59:36.273Z,3.53
2018-05-06T01:02:03.226Z,4.03
2018-05-06T01:04:30.173Z,3.57
2018-05-06T01:06:56.363Z,3.70
2018-05-06T01:09:22.555Z,3.60
2018-05-06T01:11:48.802Z,3.30
2018-05-06T01:14:14.976Z,3.50
2018-05-06T01:16:41.152Z,3.57
2018-05-06T01:19:08.094Z,3.47
2018-05-06T01:21:35.013Z,3.67
2018-05-06T01:24:01.261Z,3.80
2018-05-06T01:26:28.230Z,4.30
2018-05-06T01:28:55.267Z,4.93
2018-05-06T01:31:21.470Z,4.67
2018-05-06T01:33:47.654Z,4.47
2018-05-06T01:36:14.600Z,4.40
2018-05-06T01:38:41.510Z,4.17
2018-05-06T01:41:07.688Z,4.73
2018-05-06T01:43:34.611Z,3.97
2018-05-06T01:46:00.806Z,3.73
2018-05-06T01:48:27.001Z,4.00
2018-05-06T01:50:53.258Z,4.97
2018-05-06T01:53:19.490Z,4.27
2018-05-06T01:55:45.692Z,3.97
2018-05-06T01:58:12.613Z,4.10
2018-05-06T02:00:38.809Z,3.80
2018-05-06T02:03:04.988Z,3.90
2018-05-06T02:05:31.170Z,3.67
2018-05-06T02:07:57.365Z,3.70
2018-05-06T02:10:24.294Z,3.97
2018-05-06T02:12:50.673Z,4.30
2018-05-06T02:15:16.856Z,3.83
2018-05-06T02:17:43.029Z,3.73
2018-05-06T02:20:09.956Z,3.97
2018-05-06T02:22:36.142Z,4.30
2018-05-06T02:25:02.407Z,3.77
2018-05-06T02:27:28.603Z,4.03
2018-05-06T02:29:54.782Z,3.20
2018-05-06T02:32:21.046Z,3.20
2018-05-06T02:34:48.007Z,3.93
2018-05-06T02:37:14.210Z,3.67
2018-05-06T02:39:41.866Z,3.57
2018-05-06T02:42:08.070Z,3.43
2018-05-06T02:44:34.265Z,3.47
2018-05-06T02:47:01.215Z,3.93
2018-05-06T02:49:28.160Z,3.53
2018-05-06T02:51:55.094Z,3.70
2018-05-06T02:54:21.289Z,4.10
2018-05-06T02:56:47.477Z,4.63
2018-05-06T02:59:14.409Z,4.23
2018-05-06T03:01:40.630Z,4.20
2018-05-06T03:04:06.827Z,3.53
2018-05-06T03:06:33.034Z,3.60
2018-05-06T03:09:00.003Z,4.23
2018-05-06T03:11:26.185Z,4.17
2018-05-06T03:13:52.394Z,4.43
2018-05-06T03:16:18.625Z,3.90
2018-05-06T03:18:44.806Z,3.90
2018-05-06T03:21:11.758Z,3.53
2018-05-06T03:23:38.690Z,4.10
2018-05-06T03:26:04.946Z,4.00
2018-05-06T03:28:31.863Z,3.73
2018-05-06T03:30:58.082Z,3.20
2018-05-06T03:33:24.302Z,3.33
2018-05-06T03:35:50.493Z,3.57
2018-05-06T03:38:17.484Z,3.50
2018-05-06T03:40:43.662Z,3.73
2018-05-06T03:43:09.862Z,3.03
2018-05-06T03:45:36.094Z,3.10
2018-05-06T03:48:02.277Z,2.67
2018-05-06T03:50:29.230Z,3.00
2018-05-06T03:52:56.653Z,3.00
2018-05-06T03:55:22.845Z,2.93
2018-05-06T03:58:01.525Z,2.53
2018-05-06T04:00:40.969Z,3.20
2018-05-06T04:03:07.912Z,2.50
2018-05-06T04:05:34.089Z,2.63
2018-05-06T04:08:00.295Z,2.77
2018-05-06T04:10:26.473Z,2.40
2018-05-06T04:12:52.652Z,2.63
2018-05-06T04:15:19.583Z,3.07
2018-05-06T04:17:45.783Z,2.80
2018-05-06T04:20:11.990Z,3.07
2018-05-06T04:22:38.176Z,3.03
2018-05-06T04:25:04.356Z,2.93
2018-05-06T04:27:30.549Z,2.77
2018-05-06T04:29:56.754Z,2.50
2018-05-06T04:32:22.985Z,2.40
2018-05-06T04:34:49.173Z,2.60
2018-05-06T04:37:16.090Z,2.47
2018-05-06T04:39:42.295Z,2.50
2018-05-06T04:42:08.477Z,2.20
2018-05-06T04:44:35.401Z,2.53
2018-05-06T04:47:01.577Z,2.17
2018-05-06T04:49:27.757Z,2.20
2018-05-06T04:51:53.929Z,2.20
2018-05-06T04:54:20.116Z,2.60
2018-05-06T04:56:46.299Z,2.70
2018-05-06T04:59:12.500Z,2.73
2018-05-06T05:01:38.684Z,2.33
2018-05-06T05:04:05.028Z,2.80
2018-05-06T05:06:31.233Z,2.50
2018-05-06T05:08:57.475Z,3.00
2018-05-06T05:11:23.659Z,2.93
2018-05-06T05:13:49.832Z,2.93
2018-05-06T05:16:16.757Z,3.23
2018-05-06T05:18:42.961Z,3.00
2018-05-06T05:21:09.162Z,3.10
2018-05-06T05:23:35.348Z,3.47
2018-05-06T05:26:01.553Z,2.83
2018-05-06T05:28:27.735Z,3.00
2018-05-06T05:30:54.719Z,3.20
2018-05-06T05:33:20.907Z,3.07
2018-05-06T05:35:47.833Z,3.27
2018-05-06T05:38:14.034Z,3.00
2018-05-06T05:40:40.217Z,3.07
2018-05-06T05:43:06.421Z,3.50
2018-05-06T05:45:32.622Z,2.90
2018-05-06T05:47:58.807Z,3.10
2018-05-06T05:50:24.992Z,3.60
2018-05-06T05:52:51.220Z,3.30
2018-05-06T05:55:17.578Z,3.50
2018-05-06T05:57:43.779Z,3.70
2018-05-06T06:00:10.708Z,3.90
2018-05-06T06:02:37.651Z,3.63
2018-05-06T06:05:04.063Z,3.97
2018-05-06T06:07:30.277Z,3.57
2018-05-06T06:09:56.457Z,3.97
2018-05-06T06:12:22.633Z,4.00
2018-05-06T06:14:48.821Z,3.47
2018-05-06T06:17:15.001Z,3.60
2018-05-06T06:19:41.195Z,3.67
2018-05-06T06:22:07.390Z,3.10
2018-05-06T06:24:33.609Z,3.73
2018-05-06T06:26:59.794Z,3.47
2018-05-06T06:29:26.729Z,3.60
2018-05-06T06:31:52.913Z,3.50
2018-05-06T06:34:19.152Z,3.80
2018-05-06T06:36:45.341Z,3.63
2018-05-06T06:39:11.526Z,3.90
2018-05-06T06:41:37.726Z,4.30
2018-05-06T06:44:04.645Z,3.53
2018-05-06T06:46:30.818Z,4.03
2018-05-06T06:48:57.011Z,4.03
2018-05-06T06:51:23.238Z,4.20
2018-05-06T06:53:49.431Z,4.27
2018-05-06T06:56:15.641Z,4.13
2018-05-06T06:58:41.867Z,4.10
2018-05-06T07:01:08.783Z,3.73
2018-05-06T07:03:34.973Z,3.83
2018-05-06T07:06:01.447Z,3.90
2018-05-06T07:08:27.642Z,4.27
2018-05-06T07:10:53.817Z,3.73
2018-05-06T07:13:20.001Z,3.37
2018-05-06T07:15:46.185Z,3.77
2018-05-06T07:18:12.368Z,3.57
2018-05-06T07:20:38.566Z,4.00
2018-05-06T07:23:04.737Z,3.87
2018-05-06T07:25:30.910Z,3.40
2018-05-06T07:27:57.098Z,3.03
2018-05-06T07:30:23.277Z,3.50
2018-05-06T07:32:49.520Z,3.57
2018-05-06T07:35:15.670Z,3.03
2018-05-06T07:37:42.616Z,3.30
2018-05-06T07:40:09.533Z,3.23
2018-05-06T07:42:35.731Z,4.47
2018-05-06T07:45:01.926Z,3.70
2018-05-06T07:47:28.105Z,3.67
2018-05-06T07:49:54.305Z,3.60
2018-05-06T07:52:21.226Z,3.43
2018-05-06T07:54:47.397Z,3.47
2018-05-06T07:57:14.334Z,3.20
2018-05-06T07:59:41.237Z,3.57
2018-05-06T08:02:07.429Z,2.90
2018-05-06T08:04:34.353Z,2.70
2018-05-06T08:07:00.764Z,2.90
2018-05-06T08:09:26.945Z,3.33
2018-05-06T08:11:53.873Z,3.20
2018-05-06T08:14:20.069Z,2.87
2018-05-06T08:16:46.257Z,3.70
2018-05-06T08:19:13.162Z,3.30
2018-05-06T08:21:39.375Z,2.90
2018-05-06T08:24:05.554Z,2.47
2018-05-06T08:26:32.494Z,2.93
2018-05-06T08:28:58.678Z,2.97
2018-05-06T08:31:24.855Z,2.93
2018-05-06T08:33:51.046Z,2.70
2018-05-06T08:36:17.226Z,2.80
2018-05-06T08:38:43.412Z,2.83
2018-05-06T08:41:09.601Z,3.47
2018-05-06T08:43:35.790Z,3.10
2018-05-06T08:46:02.014Z,3.03
2018-05-06T08:48:28.201Z,3.03
2018-05-06T08:50:54.401Z,2.27
2018-05-06T08:53:20.601Z,2.80
2018-05-06T08:55:46.790Z,3.33
2018-05-06T08:58:12.998Z,2.83
2018-05-06T09:00:39.187Z,3.50
2018-05-06T09:03:05.389Z,2.93
2018-05-06T09:05:31.598Z,2.90
2018-05-06T09:07:57.776Z,2.63
2018-05-06T09:10:24.725Z,2.30
2018-05-06T09:12:51.654Z,2.80
2018-05-06T09:15:17.852Z,3.00
2018-05-06T09:17:44.037Z,2.93
2018-05-06T09:20:10.226Z,2.80
2018-05-06T09:22:36.417Z,2.00
2018-05-06T09:25:03.399Z,3.07
2018-05-06T09:27:29.600Z,2.90
2018-05-06T09:29:55.781Z,2.40
2018-05-06T09:32:22.024Z,2.77
2018-05-06T09:34:48.170Z,2.87
2018-05-06T09:37:15.531Z,2.40
2018-05-06T09:39:41.720Z,2.57
2018-05-06T09:42:07.949Z,2.07
2018-05-06T09:44:34.138Z,2.57
2018-05-06T09:47:00.312Z,2.40
2018-05-06T09:49:26.488Z,2.87
2018-05-06T09:51:52.672Z,2.50
2018-05-06T09:54:18.914Z,2.83
2018-05-06T09:56:45.103Z,2.70
2018-05-06T09:59:12.012Z,2.40
2018-05-06T10:01:38.193Z,2.43
2018-05-06T10:04:05.120Z,2.20
2018-05-06T10:06:31.601Z,2.50
2018-05-06T10:08:57.939Z,2.10
2018-05-06T10:11:24.113Z,1.87
2018-05-06T10:13:50.315Z,2.97
2018-05-06T10:16:16.497Z,2.97
2018-05-06T10:18:42.735Z,2.50
2018-05-06T10:21:08.921Z,2.50
2018-05-06T10:23:35.093Z,2.43
2018-05-06T10:26:01.277Z,2.33
2018-05-06T10:28:27.457Z,2.50
2018-05-06T10:30:53.645Z,2.20
2018-05-06T10:33:19.825Z,2.23
2018-05-06T10:35:46.040Z,2.10
2018-05-06T10:38:12.229Z,2.27
2018-05-06T10:40:38.394Z,2.00
2018-05-06T10:43:04.577Z,1.73
2018-05-06T10:45:31.480Z,1.90
2018-05-06T10:47:57.673Z,1.97
2018-05-06T10:50:23.948Z,1.90
2018-05-06T10:52:50.082Z,2.20
2018-05-06T10:55:16.263Z,1.80
2018-05-06T10:57:43.221Z,2.33
2018-05-06T11:00:09.417Z,2.30
2018-05-06T11:02:35.613Z,2.17
2018-05-06T11:05:01.863Z,1.83
2018-05-06T11:07:28.431Z,2.10
2018-05-06T11:09:55.413Z,1.53
2018-05-06T11:12:21.728Z,1.83
2018-05-06T11:14:48.703Z,1.80
2018-05-06T11:17:14.987Z,2.33
2018-05-06T11:19:41.191Z,2.33
2018-05-06T11:22:07.370Z,2.10
2018-05-06T11:24:33.631Z,2.07
2018-05-06T11:27:00.613Z,2.07
2018-05-06T11:29:26.789Z,1.80
2018-05-06T11:31:53.766Z,1.80
2018-05-06T11:34:20.327Z,1.80
2018-05-06T11:36:46.716Z,2.20
2018-05-06T11:39:13.680Z,2.10
2018-05-06T11:41:40.629Z,2.10
2018-05-06T11:44:07.574Z,2.20
2018-05-06T11:46:34.530Z,1.60
2018-05-06T11:49:01.678Z,1.50
2018-05-06T11:51:28.064Z,1.80
2018-05-06T11:53:54.293Z,1.80
2018-05-06T11:56:20.544Z,2.00
2018-05-06T11:58:47.433Z,2.20
2018-05-06T12:01:14.352Z,1.80
2018-05-06T12:03:40.523Z,2.07
2018-05-06T12:06:07.459Z,2.43
2018-05-06T12:08:34.750Z,1.93
2018-05-06T12:11:00.958Z,1.60
2018-05-06T12:13:28.007Z,2.20
2018-05-06T12:15:55.026Z,2.00
2018-05-06T12:18:21.166Z,2.20
2018-05-06T12:20:47.357Z,1.60
2018-05-06T12:23:13.566Z,2.23
2018-05-06T12:25:40.521Z,1.90
2018-05-06T12:28:07.441Z,1.80
2018-05-06T12:30:33.622Z,1.73
2018-05-06T12:32:59.796Z,1.90
2018-05-06T12:35:26.066Z,1.37
2018-05-06T12:37:53.010Z,1.50
2018-05-06T12:40:19.945Z,1.60
2018-05-06T12:42:46.152Z,1.70
2018-05-06T12:45:12.343Z,1.87
2018-05-06T12:47:38.545Z,1.50
2018-05-06T12:50:04.746Z,1.80
2018-05-06T12:52:30.945Z,1.70
2018-05-06T12:54:57.142Z,1.83
2018-05-06T12:57:23.318Z,2.30
2018-05-06T12:59:49.519Z,1.63
2018-05-06T13:02:16.445Z,2.03
2018-05-06T13:04:44.140Z,1.70
2018-05-06T13:07:11.098Z,1.70
2018-05-06T13:09:37.459Z,2.20
2018-05-06T13:12:03.731Z,1.40
2018-05-06T13:14:30.682Z,1.83
2018-05-06T13:16:57.638Z,1.70
2018-05-06T13:19:23.834Z,2.00
2018-05-06T13:21:50.745Z,1.80
2018-05-06T13:24:17.700Z,1.67
2018-05-06T13:26:44.645Z,2.00
2018-05-06T13:29:11.566Z,1.90
2018-05-06T13:31:37.783Z,2.07
2018-05-06T13:34:03.968Z,1.97
2018-05-06T13:36:30.956Z,1.90
2018-05-06T13:38:57.170Z,2.13
2018-05-06T13:41:23.353Z,2.27
2018-05-06T13:43:49.574Z,2.23
2018-05-06T13:46:15.805Z,2.07
2018-05-06T13:48:42.014Z,3.47
2018-05-06T13:51:08.219Z,1.80
2018-05-06T13:53:35.174Z,2.07
2018-05-06T13:56:01.370Z,2.20
2018-05-06T13:58:27.593Z,2.10
2018-05-06T14:00:53.821Z,2.23
2018-05-06T14:03:20.465Z,1.80
2018-05-06T14:05:47.727Z,2.33
2018-05-06T14:08:14.324Z,1.70
2018-05-06T14:10:40.940Z,1.90
2018-05-06T14:13:07.478Z,2.10
2018-05-06T14:15:34.892Z,1.10
2018-05-06T14:18:01.464Z,2.00
2018-05-06T14:20:29.958Z,1.73
2018-05-06T14:22:56.604Z,1.83
2018-05-06T14:25:23.301Z,1.50
2018-05-06T14:27:49.593Z,2.00
2018-05-06T14:30:16.554Z,1.57
2018-05-06T14:32:42.766Z,1.60
2018-05-06T14:35:09.917Z,1.20
2018-05-06T14:37:36.883Z,1.90
2018-05-06T14:40:03.094Z,1.60
2018-05-06T14:42:30.217Z,1.50
2018-05-06T14:44:56.515Z,1.37
2018-05-06T14:47:35.311Z,1.27
2018-05-06T14:50:02.335Z,1.13
2018-05-06T14:52:28.577Z,1.37
2018-05-06T14:54:54.803Z,1.40
2018-05-06T14:57:22.504Z,1.40
2018-05-06T14:59:49.593Z,1.17
2018-05-06T15:02:16.000Z,1.20
2018-05-06T15:04:42.233Z,1.50
2018-05-06T15:07:09.171Z,1.00
2018-05-06T15:09:36.303Z,1.37
2018-05-06T15:12:03.306Z,1.40
2018-05-06T15:14:35.401Z,1.30
2018-05-06T15:17:01.610Z,1.20
2018-05-06T15:19:27.810Z,1.20
2018-05-06T15:21:54.852Z,1.30
2018-05-06T15:24:21.249Z,1.10
2018-05-06T15:26:47.791Z,1.00
2018-05-06T15:29:14.620Z,1.13
2018-05-06T15:31:41.827Z,1.00
2018-05-06T15:34:08.332Z,0.83
2018-05-06T15:36:35.702Z,1.00
2018-05-06T15:39:02.198Z,0.90
2018-05-06T15:41:28.478Z,1.00
2018-05-06T15:43:54.804Z,0.87
2018-05-06T15:46:21.204Z,1.00
2018-05-06T15:48:47.840Z,0.97
2018-05-06T15:51:14.340Z,0.87
2018-05-06T15:53:40.609Z,1.47
2018-05-06T15:56:07.621Z,0.60
2018-05-06T15:58:33.870Z,0.90
2018-05-06T16:01:00.917Z,0.80
2018-05-06T16:03:39.362Z,0.70
2018-05-06T16:06:05.783Z,0.77
2018-05-06T16:08:32.218Z,0.83
2018-05-06T16:10:59.993Z,1.00
2018-05-06T16:13:26.628Z,0.87
2018-05-06T16:15:53.134Z,0.70
2018-05-06T16:18:19.726Z,0.90
2018-05-06T16:20:46.392Z,0.90
2018-05-06T16:23:13.037Z,0.70
2018-05-06T16:25:39.380Z,1.00
2018-05-06T16:28:05.643Z,0.90
2018-05-06T16:30:32.064Z,0.80
2018-05-06T16:32:58.522Z,0.70
2018-05-06T16:35:25.706Z,0.80
2018-05-06T16:37:52.252Z,0.80
2018-05-06T16:40:18.664Z,0.67
2018-05-06T16:42:46.818Z,0.60
2018-05-06T16:45:14.201Z,0.80
2018-05-06T16:47:41.561Z,0.67
2018-05-06T16:50:08.411Z,0.50
2018-05-06T16:52:34.900Z,0.60
2018-05-06T16:55:01.419Z,0.80
2018-05-06T16:57:28.359Z,0.90
2018-05-06T16:59:54.903Z,0.63
2018-05-06T17:02:21.404Z,1.00
2018-05-06T17:04:47.910Z,0.80
2018-05-06T17:07:14.537Z,0.90
2018-05-06T17:09:41.759Z,0.60
2018-05-06T17:12:08.330Z,0.90
2018-05-06T17:14:35.587Z,0.90
2018-05-06T17:17:02.085Z,0.70
2018-05-06T17:19:28.525Z,1.17
2018-05-06T17:21:55.082Z,0.80
2018-05-06T17:24:21.319Z,0.93
2018-05-06T17:26:47.827Z,1.00
2018-05-06T17:29:14.319Z,1.00
2018-05-06T17:31:41.495Z,1.20
2018-05-06T17:34:07.834Z,0.80
2018-05-06T17:36:34.070Z,1.10
2018-05-06T17:39:00.419Z,1.00
2018-05-06T17:41:26.838Z,1.13
2018-05-06T17:43:53.115Z,1.57
2018-05-06T17:46:19.385Z,1.20
2018-05-06T17:48:46.402Z,1.10
2018-05-06T17:51:12.658Z,1.27
2018-05-06T17:53:39.643Z,1.10
2018-05-06T17:56:05.911Z,1.00
2018-05-06T17:58:32.132Z,1.10
2018-05-06T18:00:58.373Z,1.10
2018-05-06T18:03:24.763Z,1.13
2018-05-06T18:05:51.783Z,1.10
2018-05-06T18:08:18.029Z,1.10
2018-05-06T18:10:44.311Z,1.27
2018-05-06T18:13:10.566Z,1.20
2018-05-06T18:15:36.751Z,1.37
2018-05-06T18:18:03.685Z,1.17
2018-05-06T18:20:29.879Z,1.03
2018-05-06T18:22:56.093Z,1.00
2018-05-06T18:25:22.285Z,1.00
2018-05-06T18:27:48.463Z,1.27
2018-05-06T18:30:14.653Z,1.10
2018-05-06T18:32:40.835Z,1.00
2018-05-06T18:35:07.072Z,1.10
2018-05-06T18:37:33.295Z,1.10
2018-05-06T18:39:59.493Z,1.03
2018-05-06T18:42:26.445Z,1.13
2018-05-06T18:44:53.402Z,1.00
2018-05-06T18:47:19.610Z,1.00
2018-05-06T18:49:45.823Z,1.00
2018-05-06T18:52:12.037Z,1.07
2018-05-06T18:54:38.276Z,0.97
2018-05-06T18:57:04.600Z,0.90
2018-05-06T18:59:30.921Z,1.20
2018-05-06T19:01:57.334Z,1.10
2018-05-06T19:04:23.713Z,1.40
2018-05-06T19:06:50.135Z,1.20
2018-05-06T19:09:16.525Z,1.00
2018-05-06T19:11:43.045Z,1.20
2018-05-06T19:14:10.297Z,1.40
2018-05-06T19:16:36.924Z,1.03
2018-05-06T19:19:03.391Z,1.30
2018-05-06T19:21:30.338Z,1.20
2018-05-06T19:23:57.073Z,1.30
2018-05-06T19:26:23.435Z,1.20
2018-05-06T19:28:51.324Z,1.00
2018-05-06T19:31:19.736Z,1.20
2018-05-06T19:33:48.465Z,1.10
2018-05-06T19:36:19.367Z,1.20
2018-05-06T19:38:45.870Z,1.00
2018-05-06T19:41:13.667Z,1.10
2018-05-06T19:43:43.133Z,1.00
2018-05-06T19:46:10.187Z,1.53
2018-05-06T19:48:37.608Z,1.23
2018-05-06T19:51:08.848Z,1.10
2018-05-06T19:53:35.925Z,1.10
2018-05-06T19:56:03.192Z,1.40
2018-05-06T19:58:29.926Z,1.40
2018-05-06T20:00:59.532Z,1.13
2018-05-06T20:03:26.257Z,1.30
2018-05-06T20:05:52.982Z,1.40
2018-05-06T20:08:25.989Z,1.37
2018-05-06T20:10:58.010Z,1.30
2018-05-06T20:13:30.870Z,1.37
2018-05-06T20:15:59.067Z,1.40
2018-05-06T20:18:36.949Z,1.23
2018-05-06T20:21:17.409Z,1.70
2018-05-06T20:23:52.434Z,1.33
2018-05-06T20:32:20.806Z,1.30
2018-05-06T20:34:53.794Z,1.40
2018-05-06T20:37:40.277Z,1.50
2018-05-06T20:40:16.632Z,1.40
2018-05-06T20:42:51.393Z,1.70
2018-05-06T20:45:32.676Z,1.40
2018-05-06T20:48:02.901Z,1.30
2018-05-06T20:50:40.669Z,1.40
2018-05-06T20:53:08.591Z,1.37
2018-05-06T20:55:42.449Z,1.90
2018-05-06T21:01:09.288Z,1.90
2018-05-06T21:03:38.991Z,1.50
2018-05-06T22:16:49.300Z,1.70
2018-05-06T22:34:27.938Z,1.80
2018-05-06T22:40:13.050Z,1.90
2018-05-06T23:00:46.629Z,1.70
2018-05-06T23:03:21.711Z,2.20
2018-05-06T23:11:36.257Z,2.17
2018-05-06T23:14:13.516Z,1.90
2018-05-06T23:19:47.721Z,2.03
2018-05-06T23:22:22.931Z,2.10
2018-05-06T23:25:00.314Z,2.13
2018-05-06T23:27:33.148Z,2.00
2018-05-06T23:30:05.236Z,2.10
2018-05-06T23:32:38.051Z,1.83
2018-05-06T23:35:06.740Z,2.00
2018-05-06T23:37:38.062Z,2.20
2018-05-06T23:40:06.789Z,2.17
2018-05-06T23:42:34.564Z,2.43
2018-05-06T23:45:03.798Z,2.50
2018-05-06T23:47:31.158Z,2.07
2018-05-06T23:50:06.244Z,1.80
2018-05-06T23:52:33.655Z,2.10
2018-05-06T23:55:00.911Z,1.80
2018-05-06T23:57:37.377Z,1.90
